createdAt,value
2019-03-21T00:03:23.141Z,46.00
2019-03-21T00:08:29.730Z,274.10
2019-03-21T00:13:37.265Z,500.10
2019-03-21T00:18:43.414Z,303.90
2019-03-21T00:23:49.397Z,817.30
2019-03-21T00:28:55.543Z,608.80
2019-03-21T00:34:01.730Z,402.50
2019-03-21T00:39:07.841Z,222.23
2019-03-21T00:49:21.981Z,44.30
2019-03-21T00:54:28.235Z,20.20
2019-03-21T02:01:30.109Z,11.30
2019-03-21T02:06:36.700Z,9.70
2019-03-21T02:11:42.477Z,10.40
2019-03-21T02:16:48.251Z,8.95
2019-03-21T02:21:54.204Z,8.50
2019-03-21T02:27:00.068Z,8.30
2019-03-21T02:32:06.130Z,7.90
2019-03-21T02:37:11.612Z,8.30
2019-03-21T02:42:17.464Z,9.00
2019-03-21T02:47:23.743Z,9.10
2019-03-21T02:52:29.940Z,8.80
2019-03-21T02:57:35.785Z,8.10
2019-03-21T03:02:41.843Z,8.70
2019-03-21T03:07:48.287Z,7.90
2019-03-21T03:12:54.161Z,7.40
2019-03-21T03:18:00.005Z,7.10
2019-03-21T03:23:05.786Z,7.50
2019-03-21T03:28:11.606Z,7.50
2019-03-21T03:33:17.701Z,7.20
2019-03-21T03:38:23.711Z,7.10
2019-03-21T03:43:30.728Z,6.60
2019-03-21T03:48:36.165Z,7.07
2019-03-21T03:53:42.825Z,6.70
2019-03-21T03:58:50.011Z,6.75
2019-03-21T04:03:57.219Z,6.90
2019-03-21T04:09:03.524Z,6.90
2019-03-21T04:14:09.733Z,7.80
2019-03-21T04:19:15.743Z,7.85
2019-03-21T04:24:21.502Z,7.30
2019-03-21T04:29:27.267Z,7.50
2019-03-21T04:34:32.929Z,7.30
2019-03-21T04:39:38.731Z,6.80
2019-03-21T04:44:44.610Z,7.00
2019-03-21T04:49:50.052Z,6.75
2019-03-21T04:54:55.817Z,7.15
2019-03-21T05:00:03.678Z,7.20
2019-03-21T05:05:09.103Z,6.80
2019-03-21T05:10:14.836Z,6.85
2019-03-21T05:15:20.576Z,5.75
2019-03-21T05:20:26.414Z,6.75
2019-03-21T05:25:32.345Z,7.25
2019-03-21T05:30:38.039Z,6.60
2019-03-21T05:35:43.868Z,5.60
2019-03-21T05:40:49.677Z,6.05
2019-03-21T05:45:55.587Z,6.90
2019-03-21T05:51:01.354Z,8.05
2019-03-21T05:56:07.175Z,7.00
2019-03-21T06:01:13.157Z,6.50
2019-03-21T06:06:18.286Z,8.60
2019-03-21T06:11:24.057Z,9.00
2019-03-21T06:16:37.548Z,9.40
2019-03-21T06:21:39.447Z,9.90
2019-03-21T06:26:45.241Z,11.00
2019-03-21T06:31:51.490Z,8.90
2019-03-21T06:36:57.256Z,8.80
2019-03-21T06:42:03.028Z,9.50
2019-03-21T06:47:08.791Z,9.30
2019-03-21T06:52:14.567Z,9.20
2019-03-21T06:57:20.601Z,9.80
2019-03-21T07:02:26.184Z,9.45
2019-03-21T07:07:31.754Z,9.10
2019-03-21T07:12:37.417Z,9.50
2019-03-21T07:17:44.672Z,9.60
2019-03-21T07:22:50.574Z,10.25
2019-03-21T07:27:56.122Z,10.00
2019-03-21T07:33:01.692Z,10.55
2019-03-21T07:38:07.259Z,10.30
2019-03-21T07:43:12.819Z,10.10
2019-03-21T07:53:24.456Z,9.80
2019-03-21T07:58:30.150Z,11.60
2019-03-21T08:04:20.856Z,11.10
2019-03-21T08:09:26.673Z,10.80
2019-03-21T08:14:32.363Z,10.70
2019-03-21T08:19:39.093Z,10.20
2019-03-21T08:24:44.919Z,17.30
2019-03-21T08:29:50.710Z,215.20
2019-03-21T08:34:56.357Z,310.30
2019-03-21T08:40:02.023Z,644.00
2019-03-21T08:45:07.581Z,244.90
2019-03-21T08:50:13.162Z,354.85
2019-03-21T08:55:18.706Z,148.30
2019-03-21T09:00:33.788Z,60.60
2019-03-21T09:10:36.928Z,22.85
2019-03-21T09:15:42.589Z,22.85
2019-03-21T09:20:48.161Z,18.90
2019-03-21T09:25:53.693Z,18.50
2019-03-21T09:30:59.286Z,14.80
2019-03-21T09:36:04.920Z,14.90
2019-03-21T09:41:10.603Z,17.45
2019-03-21T09:46:16.262Z,15.90
2019-03-21T09:51:30.505Z,15.70
2019-03-21T09:56:29.225Z,14.80
2019-03-21T10:01:34.788Z,15.80
2019-03-21T10:06:40.342Z,14.70
2019-03-21T10:11:45.918Z,12.60
2019-03-21T10:16:51.459Z,14.75
2019-03-21T10:21:57.236Z,15.65
2019-03-21T10:27:02.819Z,15.15
2019-03-21T10:32:14.165Z,14.00
2019-03-21T10:37:15.658Z,12.80
2019-03-21T10:42:20.710Z,15.20
2019-03-21T10:47:28.118Z,10.90
2019-03-21T10:52:33.489Z,11.10
2019-03-21T10:57:39.141Z,10.80
2019-03-21T11:02:44.680Z,13.60
2019-03-21T11:07:50.260Z,13.55
2019-03-21T11:12:55.838Z,15.80
2019-03-21T11:18:01.384Z,12.45
2019-03-21T11:23:07.773Z,14.20
2019-03-21T11:28:13.411Z,11.90
2019-03-21T11:33:18.982Z,12.30
2019-03-21T11:38:24.462Z,15.05
2019-03-21T11:43:30.217Z,12.60
2019-03-21T11:48:35.771Z,15.00
2019-03-21T11:53:41.453Z,13.70
2019-03-21T11:58:46.991Z,14.00
2019-03-21T12:03:52.547Z,12.70
2019-03-21T12:08:58.143Z,13.60
2019-03-21T12:14:03.772Z,14.45
2019-03-21T12:19:09.339Z,14.70
2019-03-21T12:24:14.887Z,13.10
2019-03-21T12:29:20.520Z,12.70
2019-03-21T12:34:26.276Z,11.90
2019-03-21T12:39:31.756Z,11.50
2019-03-21T12:44:37.724Z,13.10
2019-03-21T12:49:44.578Z,13.70
2019-03-21T13:05:01.364Z,12.00
2019-03-21T13:10:07.100Z,11.80
2019-03-21T13:15:12.659Z,10.70
2019-03-21T13:20:18.437Z,10.00
2019-03-21T13:25:24.210Z,9.90
2019-03-21T13:30:30.033Z,9.40
2019-03-21T13:35:35.743Z,10.00
2019-03-21T13:40:41.395Z,10.20
2019-03-21T13:45:47.060Z,10.60
2019-03-21T13:55:57.875Z,8.65
2019-03-21T14:01:04.341Z,8.60
2019-03-21T14:06:22.610Z,9.97
2019-03-21T14:11:28.179Z,11.10
2019-03-21T14:16:33.572Z,10.70
2019-03-21T14:21:40.323Z,10.30
2019-03-21T14:26:45.991Z,10.20
2019-03-21T14:31:51.527Z,10.55
2019-03-21T14:36:57.098Z,91.30
2019-03-21T14:42:02.917Z,105.80
2019-03-21T14:47:08.466Z,34.20
2019-03-21T14:52:14.003Z,26.60
2019-03-21T14:57:20.389Z,50.90
2019-03-21T15:02:25.947Z,58.35
2019-03-21T15:07:29.567Z,70.70
2019-03-21T15:12:33.385Z,131.50
2019-03-21T15:17:39.354Z,119.10
2019-03-21T15:22:45.074Z,151.40
2019-03-21T15:27:50.374Z,174.30
2019-03-21T15:32:55.922Z,134.20
2019-03-21T15:38:01.476Z,51.60
2019-03-21T15:43:07.037Z,34.95
2019-03-21T15:48:12.514Z,27.30
2019-03-21T15:53:18.063Z,24.20
2019-03-21T15:58:23.940Z,17.80
2019-03-21T16:10:06.515Z,15.50
2019-03-21T16:15:12.171Z,26.85
2019-03-21T16:20:17.743Z,27.40
2019-03-21T16:25:24.166Z,315.70
2019-03-21T16:30:29.769Z,401.20
2019-03-21T16:35:35.335Z,401.90
2019-03-21T16:40:41.531Z,491.20
2019-03-21T16:45:47.168Z,623.10
2019-03-21T16:50:52.738Z,709.60
2019-03-21T16:56:00.781Z,553.80
2019-03-21T17:01:08.479Z,415.00
2019-03-21T17:06:14.438Z,518.70
2019-03-21T17:11:20.158Z,391.95
2019-03-21T17:16:30.407Z,455.70
2019-03-21T17:21:37.277Z,497.90
2019-03-21T17:26:42.929Z,383.87
2019-03-21T17:31:48.496Z,343.90
2019-03-21T17:36:54.147Z,557.25
2019-03-21T17:41:59.826Z,493.15
2019-03-21T17:47:05.371Z,723.45
2019-03-21T17:52:10.953Z,725.20
2019-03-21T17:57:16.766Z,712.00
2019-03-21T18:02:22.488Z,647.15
2019-03-21T18:07:29.059Z,591.20
2019-03-21T18:12:34.720Z,428.10
2019-03-21T18:17:40.398Z,423.25
2019-03-21T18:22:46.041Z,284.95
2019-03-21T18:27:51.598Z,110.85
2019-03-21T18:32:57.175Z,51.05
2019-03-21T18:38:02.733Z,74.40
2019-03-21T18:43:08.387Z,178.15
2019-03-21T18:48:13.928Z,262.90
2019-03-21T18:53:19.524Z,190.50
2019-03-21T18:58:25.082Z,386.40
2019-03-21T19:03:30.626Z,399.40
2019-03-21T19:08:36.199Z,554.70
2019-03-21T19:13:41.766Z,658.30
2019-03-21T19:18:47.338Z,513.05
2019-03-21T19:23:52.893Z,493.73
2019-03-21T19:28:58.447Z,387.60
2019-03-21T19:34:04.018Z,622.10
2019-03-21T19:39:10.157Z,331.10
2019-03-21T19:44:15.736Z,229.30
2019-03-21T19:49:21.406Z,122.00
2019-03-21T19:54:27.382Z,310.00
2019-03-21T19:59:34.280Z,361.60
2019-03-21T20:04:40.242Z,104.60
2019-03-21T20:09:53.540Z,69.50
2019-03-21T20:14:59.501Z,125.35
2019-03-21T20:20:05.730Z,440.50
2019-03-21T20:25:11.810Z,522.75
2019-03-21T20:30:19.493Z,611.80
2019-03-21T20:35:26.275Z,678.70
2019-03-21T20:40:32.279Z,565.00
2019-03-21T20:45:38.606Z,670.10
2019-03-21T20:50:45.178Z,796.70
2019-03-21T20:55:53.886Z,728.50
2019-03-21T21:00:58.318Z,545.20
2019-03-21T21:06:03.974Z,553.30
2019-03-21T21:11:09.646Z,521.45
2019-03-21T21:16:15.278Z,543.30
2019-03-21T21:21:20.994Z,641.80
2019-03-21T21:26:26.647Z,469.15
2019-03-21T21:31:32.173Z,285.60
2019-03-21T21:36:37.754Z,142.00
2019-03-21T21:41:43.306Z,147.80
2019-03-21T21:46:48.859Z,125.75
2019-03-21T21:51:54.404Z,776.70
2019-03-21T21:57:01.036Z,562.80
2019-03-21T22:02:06.685Z,649.65
2019-03-21T22:07:12.247Z,720.75
2019-03-21T22:12:34.307Z,556.90
2019-03-21T22:17:40.367Z,688.75
2019-03-21T22:22:45.917Z,698.50
2019-03-21T22:27:51.529Z,587.50
2019-03-21T22:32:57.155Z,397.00
2019-03-21T22:38:07.283Z,243.40
2019-03-21T22:43:12.909Z,129.30
2019-03-21T22:48:18.547Z,62.10
2019-03-21T22:53:24.101Z,46.70
2019-03-21T22:58:32.027Z,34.07
2019-03-21T23:03:37.599Z,27.90
2019-03-21T23:08:43.659Z,28.25
2019-03-21T23:13:49.124Z,24.50
2019-03-21T23:18:54.926Z,26.40
2019-03-21T23:24:00.945Z,84.65
2019-03-21T23:29:06.518Z,338.63
2019-03-21T23:34:12.068Z,467.70
2019-03-21T23:39:17.572Z,277.50
2019-03-21T23:44:23.217Z,165.43
2019-03-21T23:49:29.076Z,86.87
2019-03-21T23:54:34.862Z,48.80
2019-03-21T23:59:40.656Z,37.65
